sensor_id;sensor_type;location;lat;lon;timestamp;P1;durP1;ratioP1;P2;durP2;ratioP2
21438;SDS011;10880;50.302;18.736;2023-02-01T00:00:57;4.10;;;2.60;;
21438;SDS011;10880;50.302;18.736;2023-02-01T00:03:24;4.03;;;2.50;;
21438;SDS011;10880;50.302;18.736;2023-02-01T00:06:01;5.47;;;2.90;;
21438;SDS011;10880;50.302;18.736;2023-02-01T00:08:27;4.53;;;2.93;;
21438;SDS011;10880;50.302;18.736;2023-02-01T00:10:58;4.27;;;3.00;;
21438;SDS011;10880;50.302;18.736;2023-02-01T00:13:27;5.40;;;3.33;;
21438;SDS011;10880;50.302;18.736;2023-02-01T00:16:01;4.40;;;2.60;;
21438;SDS011;10880;50.302;18.736;2023-02-01T00:18:31;5.07;;;2.90;;
21438;SDS011;10880;50.302;18.736;2023-02-01T00:20:58;3.27;;;2.27;;
21438;SDS011;10880;50.302;18.736;2023-02-01T00:23:25;2.60;;;2.10;;
21438;SDS011;10880;50.302;18.736;2023-02-01T00:25:52;4.03;;;2.70;;
21438;SDS011;10880;50.302;18.736;2023-02-01T00:28:18;5.23;;;3.10;;
21438;SDS011;10880;50.302;18.736;2023-02-01T00:30:57;5.07;;;3.20;;
21438;SDS011;10880;50.302;18.736;2023-02-01T00:33:29;4.07;;;2.53;;
21438;SDS011;10880;50.302;18.736;2023-02-01T00:35:58;2.47;;;2.17;;
21438;SDS011;10880;50.302;18.736;2023-02-01T00:38:29;3.67;;;2.57;;
21438;SDS011;10880;50.302;18.736;2023-02-01T00:41:10;3.87;;;2.50;;
21438;SDS011;10880;50.302;18.736;2023-02-01T00:43:38;3.40;;;2.53;;
21438;SDS011;10880;50.302;18.736;2023-02-01T00:46:05;3.30;;;2.40;;
21438;SDS011;10880;50.302;18.736;2023-02-01T00:48:35;3.20;;;2.60;;
21438;SDS011;10880;50.302;18.736;2023-02-01T00:51:03;3.20;;;2.30;;
21438;SDS011;10880;50.302;18.736;2023-02-01T00:53:36;2.20;;;2.00;;
21438;SDS011;10880;50.302;18.736;2023-02-01T00:56:04;1.97;;;1.80;;
21438;SDS011;10880;50.302;18.736;2023-02-01T00:58:32;2.23;;;1.53;;
21438;SDS011;10880;50.302;18.736;2023-02-01T01:03:34;1.50;;;1.40;;
21438;SDS011;10880;50.302;18.736;2023-02-01T01:06:10;1.57;;;1.47;;
21438;SDS011;10880;50.302;18.736;2023-02-01T01:08:39;1.43;;;1.40;;
21438;SDS011;10880;50.302;18.736;2023-02-01T01:11:11;1.60;;;1.50;;
21438;SDS011;10880;50.302;18.736;2023-02-01T01:13:42;1.40;;;1.30;;
21438;SDS011;10880;50.302;18.736;2023-02-01T01:16:10;1.60;;;1.50;;
21438;SDS011;10880;50.302;18.736;2023-02-01T01:18:37;1.60;;;1.50;;
21438;SDS011;10880;50.302;18.736;2023-02-01T01:21:04;1.57;;;1.47;;
21438;SDS011;10880;50.302;18.736;2023-02-01T01:23:31;1.53;;;1.43;;
21438;SDS011;10880;50.302;18.736;2023-02-01T01:25:58;2.00;;;1.47;;
21438;SDS011;10880;50.302;18.736;2023-02-01T01:28:25;1.50;;;1.40;;
21438;SDS011;10880;50.302;18.736;2023-02-01T01:30:52;2.00;;;1.47;;
21438;SDS011;10880;50.302;18.736;2023-02-01T01:33:19;1.60;;;1.50;;
21438;SDS011;10880;50.302;18.736;2023-02-01T01:35:45;1.47;;;1.37;;
21438;SDS011;10880;50.302;18.736;2023-02-01T01:38:14;1.40;;;1.30;;
21438;SDS011;10880;50.302;18.736;2023-02-01T01:40:44;1.30;;;1.30;;
21438;SDS011;10880;50.302;18.736;2023-02-01T01:43:18;1.77;;;1.40;;
21438;SDS011;10880;50.302;18.736;2023-02-01T01:45:48;1.30;;;1.30;;
21438;SDS011;10880;50.302;18.736;2023-02-01T01:48:22;1.43;;;1.33;;
21438;SDS011;10880;50.302;18.736;2023-02-01T01:51:02;1.30;;;1.30;;
21438;SDS011;10880;50.302;18.736;2023-02-01T01:53:37;1.40;;;1.30;;
21438;SDS011;10880;50.302;18.736;2023-02-01T01:56:10;1.40;;;1.40;;
21438;SDS011;10880;50.302;18.736;2023-02-01T01:58:37;1.30;;;1.30;;
21438;SDS011;10880;50.302;18.736;2023-02-01T02:01:04;1.60;;;1.50;;
21438;SDS011;10880;50.302;18.736;2023-02-01T02:03:41;1.33;;;1.23;;
21438;SDS011;10880;50.302;18.736;2023-02-01T02:06:11;1.40;;;1.30;;
21438;SDS011;10880;50.302;18.736;2023-02-01T02:08:48;1.30;;;1.30;;
21438;SDS011;10880;50.302;18.736;2023-02-01T02:11:15;1.40;;;1.30;;
21438;SDS011;10880;50.302;18.736;2023-02-01T02:13:44;1.60;;;1.50;;
21438;SDS011;10880;50.302;18.736;2023-02-01T02:35:55;1.50;;;1.40;;
21438;SDS011;10880;50.302;18.736;2023-02-01T02:44:02;2.10;;;1.60;;
21438;SDS011;10880;50.302;18.736;2023-02-01T02:47:11;1.83;;;1.70;;
21438;SDS011;10880;50.302;18.736;2023-02-01T02:52:46;2.93;;;1.63;;
21438;SDS011;10880;50.302;18.736;2023-02-01T02:55:51;2.13;;;1.60;;
21438;SDS011;10880;50.302;18.736;2023-02-01T02:58:38;1.73;;;1.50;;
21438;SDS011;10880;50.302;18.736;2023-02-01T03:01:28;1.33;;;1.33;;
21438;SDS011;10880;50.302;18.736;2023-02-01T03:04:14;1.57;;;1.47;;
21438;SDS011;10880;50.302;18.736;2023-02-01T03:06:45;1.53;;;1.43;;
21438;SDS011;10880;50.302;18.736;2023-02-01T03:09:23;1.60;;;1.50;;
21438;SDS011;10880;50.302;18.736;2023-02-01T03:11:59;2.27;;;1.50;;
21438;SDS011;10880;50.302;18.736;2023-02-01T03:14:50;1.57;;;1.47;;
21438;SDS011;10880;50.302;18.736;2023-02-01T03:17:24;1.73;;;1.63;;
21438;SDS011;10880;50.302;18.736;2023-02-01T03:19:57;1.73;;;1.50;;
21438;SDS011;10880;50.302;18.736;2023-02-01T03:22:28;2.33;;;2.13;;
21438;SDS011;10880;50.302;18.736;2023-02-01T03:24:59;1.97;;;1.87;;
21438;SDS011;10880;50.302;18.736;2023-02-01T03:27:36;1.80;;;1.70;;
21438;SDS011;10880;50.302;18.736;2023-02-01T03:30:33;2.00;;;1.90;;
21438;SDS011;10880;50.302;18.736;2023-02-01T03:33:07;1.60;;;1.50;;
21438;SDS011;10880;50.302;18.736;2023-02-01T03:44:17;1.57;;;1.47;;
21438;SDS011;10880;50.302;18.736;2023-02-01T03:47:08;1.43;;;1.33;;
21438;SDS011;10880;50.302;18.736;2023-02-01T03:49:43;1.40;;;1.30;;
21438;SDS011;10880;50.302;18.736;2023-02-01T03:52:13;2.10;;;1.43;;
21438;SDS011;10880;50.302;18.736;2023-02-01T03:54:44;1.50;;;1.40;;
21438;SDS011;10880;50.302;18.736;2023-02-01T03:57:16;1.63;;;1.53;;
21438;SDS011;10880;50.302;18.736;2023-02-01T03:59:48;1.50;;;1.40;;
21438;SDS011;10880;50.302;18.736;2023-02-01T04:02:15;1.50;;;1.40;;
21438;SDS011;10880;50.302;18.736;2023-02-01T04:04:43;1.50;;;1.40;;
21438;SDS011;10880;50.302;18.736;2023-02-01T04:07:11;1.60;;;1.50;;
21438;SDS011;10880;50.302;18.736;2023-02-01T04:09:38;1.50;;;1.40;;
21438;SDS011;10880;50.302;18.736;2023-02-01T04:12:05;1.50;;;1.40;;
21438;SDS011;10880;50.302;18.736;2023-02-01T04:14:31;1.67;;;1.57;;
21438;SDS011;10880;50.302;18.736;2023-02-01T04:16:58;1.60;;;1.50;;
21438;SDS011;10880;50.302;18.736;2023-02-01T04:19:25;3.63;;;2.10;;
21438;SDS011;10880;50.302;18.736;2023-02-01T04:21:51;2.60;;;1.90;;
21438;SDS011;10880;50.302;18.736;2023-02-01T04:24:18;3.97;;;2.17;;
21438;SDS011;10880;50.302;18.736;2023-02-01T04:26:44;2.10;;;1.90;;
21438;SDS011;10880;50.302;18.736;2023-02-01T04:29:11;2.87;;;1.83;;
21438;SDS011;10880;50.302;18.736;2023-02-01T04:31:39;2.30;;;2.00;;
21438;SDS011;10880;50.302;18.736;2023-02-01T04:34:06;2.10;;;1.90;;
21438;SDS011;10880;50.302;18.736;2023-02-01T04:36:33;3.03;;;2.33;;
21438;SDS011;10880;50.302;18.736;2023-02-01T04:39:00;2.30;;;2.10;;
21438;SDS011;10880;50.302;18.736;2023-02-01T04:41:26;3.67;;;2.40;;
21438;SDS011;10880;50.302;18.736;2023-02-01T04:43:54;2.83;;;2.03;;
21438;SDS011;10880;50.302;18.736;2023-02-01T04:46:20;2.30;;;2.10;;
21438;SDS011;10880;50.302;18.736;2023-02-01T04:48:49;2.57;;;1.80;;
21438;SDS011;10880;50.302;18.736;2023-02-01T04:51:15;2.87;;;1.90;;
21438;SDS011;10880;50.302;18.736;2023-02-01T04:53:44;3.57;;;2.50;;
21438;SDS011;10880;50.302;18.736;2023-02-01T04:56:13;2.07;;;1.97;;
21438;SDS011;10880;50.302;18.736;2023-02-01T04:58:39;4.30;;;2.33;;
21438;SDS011;10880;50.302;18.736;2023-02-01T05:01:06;2.30;;;1.93;;
21438;SDS011;10880;50.302;18.736;2023-02-01T05:03:35;2.53;;;2.00;;
21438;SDS011;10880;50.302;18.736;2023-02-01T05:06:01;3.00;;;2.10;;
21438;SDS011;10880;50.302;18.736;2023-02-01T05:08:30;2.07;;;1.87;;
21438;SDS011;10880;50.302;18.736;2023-02-01T05:10:57;3.33;;;2.30;;
21438;SDS011;10880;50.302;18.736;2023-02-01T05:13:24;3.43;;;2.17;;
21438;SDS011;10880;50.302;18.736;2023-02-01T05:16:09;4.60;;;2.30;;
21438;SDS011;10880;50.302;18.736;2023-02-01T05:18:38;3.67;;;2.30;;
21438;SDS011;10880;50.302;18.736;2023-02-01T05:21:07;3.67;;;2.10;;
21438;SDS011;10880;50.302;18.736;2023-02-01T05:23:36;3.67;;;2.20;;
21438;SDS011;10880;50.302;18.736;2023-02-01T05:26:21;5.20;;;2.20;;
21438;SDS011;10880;50.302;18.736;2023-02-01T05:28:48;4.80;;;2.20;;
21438;SDS011;10880;50.302;18.736;2023-02-01T05:31:14;3.60;;;2.50;;
21438;SDS011;10880;50.302;18.736;2023-02-01T05:33:41;3.57;;;2.30;;
21438;SDS011;10880;50.302;18.736;2023-02-01T05:36:08;4.83;;;2.40;;
21438;SDS011;10880;50.302;18.736;2023-02-01T05:38:34;5.17;;;2.53;;
21438;SDS011;10880;50.302;18.736;2023-02-01T05:41:01;6.60;;;3.30;;
21438;SDS011;10880;50.302;18.736;2023-02-01T05:43:27;5.87;;;2.73;;
21438;SDS011;10880;50.302;18.736;2023-02-01T05:45:54;5.10;;;2.63;;
21438;SDS011;10880;50.302;18.736;2023-02-01T05:48:21;5.40;;;2.50;;
21438;SDS011;10880;50.302;18.736;2023-02-01T05:50:47;4.67;;;2.60;;
21438;SDS011;10880;50.302;18.736;2023-02-01T05:53:14;6.20;;;3.00;;
21438;SDS011;10880;50.302;18.736;2023-02-01T05:55:41;3.30;;;2.30;;
21438;SDS011;10880;50.302;18.736;2023-02-01T05:58:08;3.40;;;2.50;;
21438;SDS011;10880;50.302;18.736;2023-02-01T06:00:34;3.80;;;2.60;;
21438;SDS011;10880;50.302;18.736;2023-02-01T06:03:01;3.03;;;2.17;;
21438;SDS011;10880;50.302;18.736;2023-02-01T06:05:27;5.73;;;2.77;;
21438;SDS011;10880;50.302;18.736;2023-02-01T06:07:54;6.60;;;2.77;;
21438;SDS011;10880;50.302;18.736;2023-02-01T06:10:20;6.47;;;2.90;;
21438;SDS011;10880;50.302;18.736;2023-02-01T06:12:47;3.50;;;2.20;;
21438;SDS011;10880;50.302;18.736;2023-02-01T06:15:16;2.63;;;1.90;;
21438;SDS011;10880;50.302;18.736;2023-02-01T06:17:44;2.10;;;1.90;;
21438;SDS011;10880;50.302;18.736;2023-02-01T06:20:12;3.67;;;2.10;;
21438;SDS011;10880;50.302;18.736;2023-02-01T06:22:40;3.07;;;2.00;;
21438;SDS011;10880;50.302;18.736;2023-02-01T06:25:08;3.23;;;2.13;;
21438;SDS011;10880;50.302;18.736;2023-02-01T06:27:35;1.97;;;1.77;;
21438;SDS011;10880;50.302;18.736;2023-02-01T06:30:03;2.20;;;1.80;;
21438;SDS011;10880;50.302;18.736;2023-02-01T06:32:31;2.23;;;1.70;;
21438;SDS011;10880;50.302;18.736;2023-02-01T06:35:00;2.50;;;2.07;;
21438;SDS011;10880;50.302;18.736;2023-02-01T06:37:27;3.70;;;2.00;;
21438;SDS011;10880;50.302;18.736;2023-02-01T06:39:55;2.43;;;2.00;;
21438;SDS011;10880;50.302;18.736;2023-02-01T06:42:21;3.13;;;2.20;;
21438;SDS011;10880;50.302;18.736;2023-02-01T06:44:48;2.63;;;1.93;;
21438;SDS011;10880;50.302;18.736;2023-02-01T06:47:15;2.10;;;1.90;;
21438;SDS011;10880;50.302;18.736;2023-02-01T06:49:42;2.23;;;1.90;;
21438;SDS011;10880;50.302;18.736;2023-02-01T06:52:08;3.93;;;2.60;;
21438;SDS011;10880;50.302;18.736;2023-02-01T06:54:35;2.70;;;2.37;;
21438;SDS011;10880;50.302;18.736;2023-02-01T06:57:03;3.70;;;2.47;;
21438;SDS011;10880;50.302;18.736;2023-02-01T06:59:30;4.00;;;2.23;;
21438;SDS011;10880;50.302;18.736;2023-02-01T07:01:57;4.97;;;2.73;;
21438;SDS011;10880;50.302;18.736;2023-02-01T07:04:26;4.00;;;2.37;;
21438;SDS011;10880;50.302;18.736;2023-02-01T07:06:53;4.57;;;2.63;;
21438;SDS011;10880;50.302;18.736;2023-02-01T07:09:22;4.17;;;2.27;;
21438;SDS011;10880;50.302;18.736;2023-02-01T07:11:49;3.97;;;2.70;;
21438;SDS011;10880;50.302;18.736;2023-02-01T07:14:16;5.17;;;2.63;;
21438;SDS011;10880;50.302;18.736;2023-02-01T07:16:50;6.67;;;2.90;;
21438;SDS011;10880;50.302;18.736;2023-02-01T07:19:17;3.47;;;2.20;;
21438;SDS011;10880;50.302;18.736;2023-02-01T07:21:43;2.20;;;2.00;;
21438;SDS011;10880;50.302;18.736;2023-02-01T07:24:10;5.03;;;2.50;;
21438;SDS011;10880;50.302;18.736;2023-02-01T07:26:36;4.00;;;2.30;;
21438;SDS011;10880;50.302;18.736;2023-02-01T07:29:03;4.43;;;2.57;;
21438;SDS011;10880;50.302;18.736;2023-02-01T07:31:29;3.10;;;2.23;;
21438;SDS011;10880;50.302;18.736;2023-02-01T07:33:57;4.30;;;2.30;;
21438;SDS011;10880;50.302;18.736;2023-02-01T07:36:25;6.90;;;3.10;;
21438;SDS011;10880;50.302;18.736;2023-02-01T07:38:52;6.07;;;3.10;;
21438;SDS011;10880;50.302;18.736;2023-02-01T07:41:18;3.87;;;2.70;;
21438;SDS011;10880;50.302;18.736;2023-02-01T07:43:45;4.57;;;2.70;;
21438;SDS011;10880;50.302;18.736;2023-02-01T07:46:12;3.97;;;2.57;;
21438;SDS011;10880;50.302;18.736;2023-02-01T07:48:41;6.37;;;3.40;;
21438;SDS011;10880;50.302;18.736;2023-02-01T07:51:09;9.20;;;4.30;;
21438;SDS011;10880;50.302;18.736;2023-02-01T07:53:45;7.37;;;3.50;;
21438;SDS011;10880;50.302;18.736;2023-02-01T07:56:13;5.73;;;3.20;;
21438;SDS011;10880;50.302;18.736;2023-02-01T07:58:48;3.57;;;2.83;;
21438;SDS011;10880;50.302;18.736;2023-02-01T08:01:16;5.23;;;2.90;;
21438;SDS011;10880;50.302;18.736;2023-02-01T08:06:28;4.70;;;2.73;;
21438;SDS011;10880;50.302;18.736;2023-02-01T08:08:57;8.23;;;3.73;;
21438;SDS011;10880;50.302;18.736;2023-02-01T08:11:24;6.00;;;3.50;;
21438;SDS011;10880;50.302;18.736;2023-02-01T08:13:51;5.50;;;3.00;;
21438;SDS011;10880;50.302;18.736;2023-02-01T08:16:18;4.07;;;2.73;;
21438;SDS011;10880;50.302;18.736;2023-02-01T08:18:46;10.93;;;4.30;;
21438;SDS011;10880;50.302;18.736;2023-02-01T08:21:14;8.33;;;3.80;;
21438;SDS011;10880;50.302;18.736;2023-02-01T08:23:43;6.53;;;3.30;;
21438;SDS011;10880;50.302;18.736;2023-02-01T08:26:14;4.83;;;3.00;;
21438;SDS011;10880;50.302;18.736;2023-02-01T08:28:42;5.47;;;3.17;;
21438;SDS011;10880;50.302;18.736;2023-02-01T08:31:18;5.67;;;3.00;;
21438;SDS011;10880;50.302;18.736;2023-02-01T08:33:52;7.03;;;3.10;;
21438;SDS011;10880;50.302;18.736;2023-02-01T08:36:21;3.77;;;2.70;;
21438;SDS011;10880;50.302;18.736;2023-02-01T08:38:49;6.87;;;3.43;;
21438;SDS011;10880;50.302;18.736;2023-02-01T08:41:17;10.40;;;4.40;;
21438;SDS011;10880;50.302;18.736;2023-02-01T08:43:46;6.53;;;3.40;;
21438;SDS011;10880;50.302;18.736;2023-02-01T08:46:14;7.60;;;3.70;;
21438;SDS011;10880;50.302;18.736;2023-02-01T08:48:41;7.30;;;3.70;;
21438;SDS011;10880;50.302;18.736;2023-02-01T08:51:10;6.83;;;3.10;;
21438;SDS011;10880;50.302;18.736;2023-02-01T08:53:39;5.60;;;2.97;;
21438;SDS011;10880;50.302;18.736;2023-02-01T08:56:07;6.03;;;2.87;;
21438;SDS011;10880;50.302;18.736;2023-02-01T08:58:37;4.57;;;2.70;;
21438;SDS011;10880;50.302;18.736;2023-02-01T09:01:04;3.67;;;2.50;;
21438;SDS011;10880;50.302;18.736;2023-02-01T09:03:39;5.53;;;3.27;;
21438;SDS011;10880;50.302;18.736;2023-02-01T09:06:07;3.73;;;2.63;;
21438;SDS011;10880;50.302;18.736;2023-02-01T09:08:36;5.20;;;2.80;;
21438;SDS011;10880;50.302;18.736;2023-02-01T09:11:05;7.53;;;3.60;;
21438;SDS011;10880;50.302;18.736;2023-02-01T09:13:34;5.90;;;3.33;;
21438;SDS011;10880;50.302;18.736;2023-02-01T09:16:01;5.00;;;3.00;;
21438;SDS011;10880;50.302;18.736;2023-02-01T09:18:28;5.00;;;3.07;;
21438;SDS011;10880;50.302;18.736;2023-02-01T09:20:57;4.40;;;2.93;;
21438;SDS011;10880;50.302;18.736;2023-02-01T09:23:31;4.33;;;2.90;;
21438;SDS011;10880;50.302;18.736;2023-02-01T09:26:02;5.33;;;2.93;;
21438;SDS011;10880;50.302;18.736;2023-02-01T09:28:30;3.87;;;2.90;;
21438;SDS011;10880;50.302;18.736;2023-02-01T09:30:57;5.27;;;2.83;;
21438;SDS011;10880;50.302;18.736;2023-02-01T09:33:25;5.07;;;2.87;;
21438;SDS011;10880;50.302;18.736;2023-02-01T09:35:59;5.13;;;3.13;;
21438;SDS011;10880;50.302;18.736;2023-02-01T09:38:27;6.00;;;3.83;;
21438;SDS011;10880;50.302;18.736;2023-02-01T09:40:54;4.87;;;3.10;;
21438;SDS011;10880;50.302;18.736;2023-02-01T09:43:44;7.20;;;4.20;;
21438;SDS011;10880;50.302;18.736;2023-02-01T09:46:20;7.33;;;3.73;;
21438;SDS011;10880;50.302;18.736;2023-02-01T09:48:49;6.30;;;3.37;;
21438;SDS011;10880;50.302;18.736;2023-02-01T09:52:31;8.93;;;3.90;;
21438;SDS011;10880;50.302;18.736;2023-02-01T09:55:15;8.90;;;4.00;;
21438;SDS011;10880;50.302;18.736;2023-02-01T10:00:24;6.90;;;3.47;;
21438;SDS011;10880;50.302;18.736;2023-02-01T10:02:55;7.20;;;3.77;;
21438;SDS011;10880;50.302;18.736;2023-02-01T10:05:31;6.63;;;3.13;;
21438;SDS011;10880;50.302;18.736;2023-02-01T10:08:19;8.63;;;3.87;;
21438;SDS011;10880;50.302;18.736;2023-02-01T10:14:31;8.80;;;4.00;;
21438;SDS011;10880;50.302;18.736;2023-02-01T10:20:03;11.00;;;5.27;;
21438;SDS011;10880;50.302;18.736;2023-02-01T10:27:53;9.37;;;4.23;;
21438;SDS011;10880;50.302;18.736;2023-02-01T10:30:24;7.93;;;4.20;;
21438;SDS011;10880;50.302;18.736;2023-02-01T10:32:55;6.77;;;3.90;;
21438;SDS011;10880;50.302;18.736;2023-02-01T10:35:28;12.47;;;5.10;;
21438;SDS011;10880;50.302;18.736;2023-02-01T10:38:00;8.87;;;4.97;;
21438;SDS011;10880;50.302;18.736;2023-02-01T10:40:30;6.97;;;4.27;;
21438;SDS011;10880;50.302;18.736;2023-02-01T10:42:57;6.83;;;4.00;;
21438;SDS011;10880;50.302;18.736;2023-02-01T10:45:27;10.87;;;5.43;;
21438;SDS011;10880;50.302;18.736;2023-02-01T10:47:55;8.23;;;5.00;;
21438;SDS011;10880;50.302;18.736;2023-02-01T10:50:40;16.23;;;7.90;;
21438;SDS011;10880;50.302;18.736;2023-02-01T10:53:25;25.83;;;11.60;;
21438;SDS011;10880;50.302;18.736;2023-02-01T10:56:01;18.63;;;8.97;;
21438;SDS011;10880;50.302;18.736;2023-02-01T10:58:34;19.00;;;7.90;;
21438;SDS011;10880;50.302;18.736;2023-02-01T11:01:08;12.83;;;5.97;;
21438;SDS011;10880;50.302;18.736;2023-02-01T11:03:42;12.70;;;5.43;;
21438;SDS011;10880;50.302;18.736;2023-02-01T11:06:27;7.93;;;4.30;;
21438;SDS011;10880;50.302;18.736;2023-02-01T11:09:00;13.67;;;6.10;;
21438;SDS011;10880;50.302;18.736;2023-02-01T11:14:18;10.57;;;4.80;;
21438;SDS011;10880;50.302;18.736;2023-02-01T11:19:45;7.50;;;3.93;;
21438;SDS011;10880;50.302;18.736;2023-02-01T11:22:13;7.00;;;3.90;;
21438;SDS011;10880;50.302;18.736;2023-02-01T11:24:41;7.97;;;3.93;;
21438;SDS011;10880;50.302;18.736;2023-02-01T11:27:14;6.23;;;3.70;;
21438;SDS011;10880;50.302;18.736;2023-02-01T11:29:59;10.77;;;4.63;;
21438;SDS011;10880;50.302;18.736;2023-02-01T11:32:30;6.00;;;3.13;;
21438;SDS011;10880;50.302;18.736;2023-02-01T11:37:37;4.10;;;2.93;;
21438;SDS011;10880;50.302;18.736;2023-02-01T11:42:56;3.63;;;2.70;;
21438;SDS011;10880;50.302;18.736;2023-02-01T11:45:33;4.13;;;2.80;;
21438;SDS011;10880;50.302;18.736;2023-02-01T11:48:09;4.57;;;3.00;;
21438;SDS011;10880;50.302;18.736;2023-02-01T12:18:25;4.43;;;2.70;;
21438;SDS011;10880;50.302;18.736;2023-02-01T12:21:08;4.63;;;2.80;;
21438;SDS011;10880;50.302;18.736;2023-02-01T12:31:56;4.07;;;2.70;;
21438;SDS011;10880;50.302;18.736;2023-02-01T12:40:26;4.80;;;2.97;;
21438;SDS011;10880;50.302;18.736;2023-02-01T12:45:38;8.10;;;4.50;;
21438;SDS011;10880;50.302;18.736;2023-02-01T12:50:57;8.63;;;4.40;;
21438;SDS011;10880;50.302;18.736;2023-02-01T12:53:35;7.37;;;3.60;;
21438;SDS011;10880;50.302;18.736;2023-02-01T12:56:12;5.53;;;3.37;;
21438;SDS011;10880;50.302;18.736;2023-02-01T12:58:53;6.47;;;3.50;;
21438;SDS011;10880;50.302;18.736;2023-02-01T13:04:13;4.80;;;3.00;;
21438;SDS011;10880;50.302;18.736;2023-02-01T13:06:47;5.13;;;3.20;;
21438;SDS011;10880;50.302;18.736;2023-02-01T13:11:45;6.60;;;3.90;;
21438;SDS011;10880;50.302;18.736;2023-02-01T13:17:04;3.70;;;3.10;;
21438;SDS011;10880;50.302;18.736;2023-02-01T13:22:20;6.20;;;3.43;;
21438;SDS011;10880;50.302;18.736;2023-02-01T13:25:01;3.33;;;2.93;;
21438;SDS011;10880;50.302;18.736;2023-02-01T13:27:47;6.63;;;3.50;;
21438;SDS011;10880;50.302;18.736;2023-02-01T13:30:22;7.77;;;4.00;;
21438;SDS011;10880;50.302;18.736;2023-02-01T13:39:34;5.37;;;2.63;;
21438;SDS011;10880;50.302;18.736;2023-02-01T13:41:31;6.63;;;3.57;;
21438;SDS011;10880;50.302;18.736;2023-02-01T13:44:10;6.57;;;3.30;;
21438;SDS011;10880;50.302;18.736;2023-02-01T13:46:45;4.03;;;2.80;;
21438;SDS011;10880;50.302;18.736;2023-02-01T13:49:18;3.90;;;2.40;;
21438;SDS011;10880;50.302;18.736;2023-02-01T13:51:48;3.40;;;2.70;;
21438;SDS011;10880;50.302;18.736;2023-02-01T13:57:03;6.10;;;4.10;;
21438;SDS011;10880;50.302;18.736;2023-02-01T14:10:46;7.93;;;3.87;;
21438;SDS011;10880;50.302;18.736;2023-02-01T14:13:34;8.60;;;4.37;;
21438;SDS011;10880;50.302;18.736;2023-02-01T14:23:59;10.93;;;5.00;;
21438;SDS011;10880;50.302;18.736;2023-02-01T14:29:02;8.47;;;3.97;;
21438;SDS011;10880;50.302;18.736;2023-02-01T14:34:21;4.47;;;3.10;;
21438;SDS011;10880;50.302;18.736;2023-02-01T14:37:05;4.83;;;2.83;;
21438;SDS011;10880;50.302;18.736;2023-02-01T14:39:39;7.43;;;3.70;;
21438;SDS011;10880;50.302;18.736;2023-02-01T14:42:29;6.93;;;3.53;;
21438;SDS011;10880;50.302;18.736;2023-02-01T14:47:50;7.03;;;3.17;;
21438;SDS011;10880;50.302;18.736;2023-02-01T14:50:21;9.20;;;3.83;;
21438;SDS011;10880;50.302;18.736;2023-02-01T14:58:57;10.60;;;4.67;;
21438;SDS011;10880;50.302;18.736;2023-02-01T15:01:33;7.77;;;4.67;;
21438;SDS011;10880;50.302;18.736;2023-02-01T15:04:10;8.17;;;4.43;;
21438;SDS011;10880;50.302;18.736;2023-02-01T15:06:41;6.13;;;3.73;;
21438;SDS011;10880;50.302;18.736;2023-02-01T15:09:18;9.10;;;4.40;;
21438;SDS011;10880;50.302;18.736;2023-02-01T15:14:39;4.87;;;3.07;;
21438;SDS011;10880;50.302;18.736;2023-02-01T15:17:21;5.07;;;3.50;;
21438;SDS011;10880;50.302;18.736;2023-02-01T15:19:56;4.87;;;3.37;;
21438;SDS011;10880;50.302;18.736;2023-02-01T15:22:30;5.47;;;3.47;;
21438;SDS011;10880;50.302;18.736;2023-02-01T15:24:57;5.23;;;3.10;;
21438;SDS011;10880;50.302;18.736;2023-02-01T15:27:25;4.93;;;2.97;;
21438;SDS011;10880;50.302;18.736;2023-02-01T15:29:54;4.60;;;3.07;;
21438;SDS011;10880;50.302;18.736;2023-02-01T15:32:37;4.07;;;2.70;;
21438;SDS011;10880;50.302;18.736;2023-02-01T15:35:05;3.93;;;3.13;;
21438;SDS011;10880;50.302;18.736;2023-02-01T15:37:54;8.87;;;3.90;;
21438;SDS011;10880;50.302;18.736;2023-02-01T15:41:01;9.80;;;3.90;;
21438;SDS011;10880;50.302;18.736;2023-02-01T15:43:34;5.30;;;3.30;;
21438;SDS011;10880;50.302;18.736;2023-02-01T15:46:07;5.37;;;3.10;;
21438;SDS011;10880;50.302;18.736;2023-02-01T15:48:43;6.17;;;2.90;;
21438;SDS011;10880;50.302;18.736;2023-02-01T15:51:13;5.87;;;3.20;;
21438;SDS011;10880;50.302;18.736;2023-02-01T15:53:43;7.03;;;3.50;;
21438;SDS011;10880;50.302;18.736;2023-02-01T15:56:15;5.03;;;3.23;;
21438;SDS011;10880;50.302;18.736;2023-02-01T15:58:48;4.67;;;3.30;;
21438;SDS011;10880;50.302;18.736;2023-02-01T16:01:19;7.67;;;3.93;;
21438;SDS011;10880;50.302;18.736;2023-02-01T16:03:46;4.53;;;3.13;;
21438;SDS011;10880;50.302;18.736;2023-02-01T16:06:35;4.83;;;3.10;;
21438;SDS011;10880;50.302;18.736;2023-02-01T16:09:11;4.77;;;3.20;;
21438;SDS011;10880;50.302;18.736;2023-02-01T16:11:47;6.63;;;3.83;;
21438;SDS011;10880;50.302;18.736;2023-02-01T16:14:16;5.30;;;3.60;;
21438;SDS011;10880;50.302;18.736;2023-02-01T16:16:43;12.00;;;6.13;;
21438;SDS011;10880;50.302;18.736;2023-02-01T16:19:10;10.80;;;5.70;;
21438;SDS011;10880;50.302;18.736;2023-02-01T16:21:37;7.67;;;4.60;;
21438;SDS011;10880;50.302;18.736;2023-02-01T16:24:04;5.97;;;3.90;;
21438;SDS011;10880;50.302;18.736;2023-02-01T16:26:31;6.23;;;3.83;;
21438;SDS011;10880;50.302;18.736;2023-02-01T16:29:02;6.20;;;3.90;;
21438;SDS011;10880;50.302;18.736;2023-02-01T16:31:36;7.13;;;3.70;;
21438;SDS011;10880;50.302;18.736;2023-02-01T16:34:09;6.33;;;3.80;;
21438;SDS011;10880;50.302;18.736;2023-02-01T16:36:40;6.53;;;4.13;;
21438;SDS011;10880;50.302;18.736;2023-02-01T16:39:08;4.63;;;3.33;;
21438;SDS011;10880;50.302;18.736;2023-02-01T16:41:39;7.00;;;3.87;;
21438;SDS011;10880;50.302;18.736;2023-02-01T16:44:06;6.70;;;3.93;;
21438;SDS011;10880;50.302;18.736;2023-02-01T16:46:34;6.13;;;3.57;;
21438;SDS011;10880;50.302;18.736;2023-02-01T16:49:05;5.67;;;3.40;;
21438;SDS011;10880;50.302;18.736;2023-02-01T16:51:39;4.67;;;3.03;;
21438;SDS011;10880;50.302;18.736;2023-02-01T16:54:07;4.00;;;2.83;;
21438;SDS011;10880;50.302;18.736;2023-02-01T16:56:34;4.47;;;3.00;;
21438;SDS011;10880;50.302;18.736;2023-02-01T16:59:01;5.53;;;2.70;;
21438;SDS011;10880;50.302;18.736;2023-02-01T17:01:28;4.67;;;3.37;;
21438;SDS011;10880;50.302;18.736;2023-02-01T17:03:57;4.83;;;3.27;;
21438;SDS011;10880;50.302;18.736;2023-02-01T17:06:24;5.53;;;3.20;;
21438;SDS011;10880;50.302;18.736;2023-02-01T17:08:56;4.57;;;3.20;;
21438;SDS011;10880;50.302;18.736;2023-02-01T17:11:23;3.33;;;2.67;;
21438;SDS011;10880;50.302;18.736;2023-02-01T17:13:50;4.57;;;3.40;;
21438;SDS011;10880;50.302;18.736;2023-02-01T17:18:55;3.00;;;2.57;;
21438;SDS011;10880;50.302;18.736;2023-02-01T17:21:29;4.40;;;2.80;;
21438;SDS011;10880;50.302;18.736;2023-02-01T17:24:02;3.70;;;2.57;;
21438;SDS011;10880;50.302;18.736;2023-02-01T17:26:30;2.33;;;2.10;;
21438;SDS011;10880;50.302;18.736;2023-02-01T17:28:58;3.10;;;2.20;;
21438;SDS011;10880;50.302;18.736;2023-02-01T17:31:27;4.07;;;2.57;;
21438;SDS011;10880;50.302;18.736;2023-02-01T17:33:55;4.97;;;3.30;;
21438;SDS011;10880;50.302;18.736;2023-02-01T17:36:21;10.23;;;5.27;;
21438;SDS011;10880;50.302;18.736;2023-02-01T17:38:47;8.70;;;4.80;;
21438;SDS011;10880;50.302;18.736;2023-02-01T17:41:14;9.20;;;3.80;;
21438;SDS011;10880;50.302;18.736;2023-02-01T17:43:40;5.93;;;3.27;;
21438;SDS011;10880;50.302;18.736;2023-02-01T17:46:12;5.07;;;3.40;;
21438;SDS011;10880;50.302;18.736;2023-02-01T17:48:43;7.30;;;4.17;;
21438;SDS011;10880;50.302;18.736;2023-02-01T17:51:20;6.67;;;3.60;;